Georgetown, Illinois
Current Conditions -  °F | °C
As of 2:55 AM on Wednesday 22 Oct 2014 (Local Time) from KDNV Reporting Station
Clear Clear  
Wind Chill: 38°   Ceiling: Unl
Heat Index: 38°   Visibility: 10mi
Dew Point: 35°   Wind: 3mph
Humidity: 89%   Direction: 40°NE
Pressure: 30.23"   Gusts: NA
Location:  39.98°N, 87.64°W
Report Text: KDNV 220755Z AUTO 04003KT 10SM CLR 04/02 A3023 RMK AO2 T00350018
Loading
Personal Weather Stations






























Interactive Weather Map
Tropical Storm Tracking
New forecast layout! Learn more

10-Day Weather Forecast

Advertisements
Track Severe Weather on mobile